createdAt,value
2024-04-21T00:01:22.563Z,4.05
2024-04-21T00:03:49.758Z,3.95
2024-04-21T00:06:16.526Z,6.25
2024-04-21T00:08:43.162Z,2.97
2024-04-21T00:11:10.262Z,3.42
2024-04-21T00:13:37.046Z,5.10
2024-04-21T00:16:04.255Z,5.15
2024-04-21T00:18:30.980Z,3.55
2024-04-21T00:20:57.624Z,2.75
2024-04-21T00:23:24.273Z,4.25
2024-04-21T00:26:00.920Z,3.72
2024-04-21T00:28:31.226Z,1.05
2024-04-21T00:30:58.315Z,6.10
2024-04-21T00:33:25.311Z,1.90
2024-04-21T00:35:51.991Z,5.13
2024-04-21T00:38:18.636Z,1.52
2024-04-21T00:40:45.308Z,5.47
2024-04-21T00:43:12.063Z,3.60
2024-04-21T00:45:42.899Z,3.65
2024-04-21T00:48:10.087Z,7.72
2024-04-21T00:50:40.846Z,3.80
2024-04-21T00:53:10.979Z,4.07
2024-04-21T00:55:39.250Z,7.22
2024-04-21T00:58:08.134Z,7.28
2024-04-21T01:00:36.331Z,4.95
2024-04-21T01:03:03.566Z,13.48
2024-04-21T01:05:30.278Z,7.63
2024-04-21T01:07:57.134Z,8.50
2024-04-21T01:10:23.758Z,4.97
2024-04-21T01:12:50.486Z,5.15
2024-04-21T01:15:17.139Z,5.07
2024-04-21T01:17:43.884Z,5.22
2024-04-21T01:20:13.833Z,5.57
2024-04-21T01:22:47.001Z,2.28
2024-04-21T01:25:13.974Z,6.43
2024-04-21T01:27:40.787Z,4.97
2024-04-21T01:30:08.044Z,4.85
2024-04-21T01:32:34.767Z,5.25
2024-04-21T01:35:01.551Z,6.90
2024-04-21T01:37:29.471Z,4.90
2024-04-21T01:39:56.308Z,7.28
2024-04-21T01:42:22.946Z,10.40
2024-04-21T01:44:49.549Z,5.90
2024-04-21T01:47:16.182Z,9.15
2024-04-21T01:49:42.847Z,7.95
2024-04-21T01:52:09.544Z,7.70
2024-04-21T01:54:36.206Z,8.15
2024-04-21T01:57:03.943Z,7.53
2024-04-21T01:59:30.559Z,9.80
2024-04-21T02:01:57.262Z,5.18
2024-04-21T02:04:24.026Z,6.78
2024-04-21T02:06:51.857Z,10.55
2024-04-21T02:09:18.576Z,7.35
2024-04-21T02:11:45.443Z,8.38
2024-04-21T02:14:12.035Z,8.50
2024-04-21T02:16:38.611Z,14.32
2024-04-21T02:19:10.119Z,7.05
2024-04-21T02:21:37.082Z,10.23
2024-04-21T02:24:03.918Z,6.13
2024-04-21T02:26:30.520Z,4.70
2024-04-21T02:28:57.170Z,11.23
2024-04-21T02:31:23.846Z,11.45
2024-04-21T02:33:50.568Z,6.57
2024-04-21T02:36:18.087Z,8.13
2024-04-21T02:38:44.809Z,7.88
2024-04-21T02:41:11.432Z,7.57
2024-04-21T02:43:38.149Z,11.40
2024-04-21T02:46:06.222Z,8.65
2024-04-21T02:48:33.703Z,12.10
2024-04-21T02:51:00.949Z,6.93
2024-04-21T02:53:27.628Z,5.45
2024-04-21T02:55:54.259Z,2.72
2024-04-21T02:58:20.990Z,2.08
2024-04-21T03:00:47.736Z,2.90
2024-04-21T03:03:14.441Z,0.88
2024-04-21T03:05:41.054Z,3.00
2024-04-21T03:08:08.059Z,1.40
2024-04-21T03:10:34.653Z,3.17
2024-04-21T03:13:01.730Z,2.85
2024-04-21T03:15:28.427Z,2.75
2024-04-21T03:17:55.117Z,1.00
2024-04-21T03:20:21.762Z,0.32
2024-04-21T03:22:48.390Z,5.68
2024-04-21T03:25:15.231Z,2.70
2024-04-21T03:27:41.887Z,2.88
2024-04-21T03:30:08.891Z,1.23
2024-04-21T03:32:35.599Z,0.70
2024-04-21T03:35:02.403Z,2.22
2024-04-21T03:37:29.015Z,2.25
2024-04-21T03:39:55.999Z,0.70
2024-04-21T03:42:22.652Z,2.17
2024-04-21T03:44:49.293Z,1.75
2024-04-21T03:47:15.920Z,2.80
2024-04-21T03:49:42.563Z,3.65
2024-04-21T03:52:09.186Z,2.88
2024-04-21T03:54:35.845Z,1.63
2024-04-21T03:57:06.232Z,2.58
2024-04-21T03:59:33.472Z,2.67
2024-04-21T04:02:01.251Z,2.00
2024-04-21T04:04:28.340Z,1.42
2024-04-21T04:06:55.204Z,3.40
2024-04-21T04:09:21.915Z,7.78
2024-04-21T04:11:48.636Z,2.40
2024-04-21T04:14:15.566Z,2.67
2024-04-21T04:16:42.552Z,1.65
2024-04-21T04:19:10.649Z,2.17
2024-04-21T04:21:37.490Z,4.45
2024-04-21T04:24:04.184Z,2.70
2024-04-21T04:26:30.888Z,5.53
2024-04-21T04:28:57.596Z,2.20
2024-04-21T04:31:24.363Z,1.63
2024-04-21T04:33:51.200Z,3.22
2024-04-21T04:36:18.012Z,1.58
2024-04-21T04:38:44.682Z,3.10
2024-04-21T04:41:11.298Z,0.90
2024-04-21T04:43:38.084Z,1.88
2024-04-21T04:46:05.344Z,0.80
2024-04-21T04:48:34.952Z,1.30
2024-04-21T04:51:02.123Z,4.88
2024-04-21T04:53:28.782Z,0.70
2024-04-21T04:55:55.468Z,0.57
2024-04-21T04:58:22.340Z,1.33
2024-04-21T05:00:49.045Z,3.00
2024-04-21T05:03:15.757Z,2.30
2024-04-21T05:05:42.499Z,0.47
2024-04-21T05:08:09.315Z,0.63
2024-04-21T05:10:36.033Z,0.73
2024-04-21T05:13:02.677Z,0.60
2024-04-21T05:15:29.409Z,0.60
2024-04-21T05:17:56.082Z,1.83
2024-04-21T05:20:23.298Z,0.70
2024-04-21T05:22:51.057Z,0.65
2024-04-21T05:25:17.672Z,1.27
2024-04-21T05:27:44.286Z,0.70
2024-04-21T05:30:11.277Z,1.05
2024-04-21T05:32:38.124Z,1.10
2024-04-21T05:35:05.111Z,1.65
2024-04-21T05:37:31.705Z,2.30
2024-04-21T05:39:58.392Z,3.08
2024-04-21T05:42:25.004Z,1.98
2024-04-21T05:44:52.560Z,2.35
2024-04-21T05:47:19.464Z,1.20
2024-04-21T05:49:46.291Z,1.05
2024-04-21T05:52:15.867Z,0.85
2024-04-21T05:54:42.867Z,1.73
2024-04-21T05:57:09.696Z,1.38
2024-04-21T05:59:36.312Z,1.00
2024-04-21T06:02:03.299Z,0.77
2024-04-21T06:04:32.539Z,1.00
2024-04-21T06:06:59.770Z,3.53
2024-04-21T06:09:27.315Z,1.15
2024-04-21T06:11:54.282Z,1.10
2024-04-21T06:14:21.207Z,0.88
2024-04-21T06:16:47.889Z,2.70
2024-04-21T06:19:14.737Z,0.82
2024-04-21T06:21:41.633Z,3.47
2024-04-21T06:24:08.359Z,1.33
2024-04-21T06:26:35.390Z,0.70
2024-04-21T06:29:02.105Z,1.77
2024-04-21T06:31:28.850Z,1.67
2024-04-21T06:33:55.566Z,3.38
2024-04-21T06:36:22.347Z,1.67
2024-04-21T06:38:48.990Z,5.35
2024-04-21T06:41:15.676Z,3.45
2024-04-21T06:43:42.291Z,3.03
2024-04-21T06:46:09.008Z,3.83
2024-04-21T06:48:35.910Z,3.17
2024-04-21T06:51:02.617Z,3.88
2024-04-21T06:53:34.880Z,2.65
2024-04-21T06:56:02.300Z,3.25
2024-04-21T06:58:28.947Z,2.17
2024-04-21T07:00:55.897Z,4.63
2024-04-21T07:03:22.711Z,6.10
2024-04-21T07:05:49.391Z,3.60
2024-04-21T07:08:16.038Z,4.13
2024-04-21T07:10:43.186Z,9.10
2024-04-21T07:13:09.852Z,4.63
2024-04-21T07:15:37.857Z,4.95
2024-04-21T07:18:04.972Z,4.40
2024-04-21T07:20:31.882Z,4.53
2024-04-21T07:22:58.490Z,7.47
2024-04-21T07:25:26.079Z,11.20
2024-04-21T07:27:53.901Z,7.95
2024-04-21T07:30:20.748Z,6.60
2024-04-21T07:32:47.656Z,4.45
2024-04-21T07:35:14.431Z,9.20
2024-04-21T07:37:41.113Z,4.28
2024-04-21T07:40:08.456Z,3.78
2024-04-21T07:42:35.106Z,4.47
2024-04-21T07:45:01.851Z,3.90
2024-04-21T07:47:29.235Z,4.57
2024-04-21T07:49:55.918Z,4.50
2024-04-21T07:52:22.541Z,6.93
2024-04-21T07:54:50.349Z,7.18
2024-04-21T07:57:17.292Z,5.53
2024-04-21T07:59:44.156Z,5.88
2024-04-21T08:02:10.946Z,3.03
2024-04-21T08:04:37.642Z,2.97
2024-04-21T08:07:05.058Z,6.03
2024-04-21T08:09:32.076Z,5.97
2024-04-21T08:11:59.159Z,4.57
2024-04-21T08:14:25.822Z,6.80
2024-04-21T08:16:52.584Z,4.43
2024-04-21T08:19:19.324Z,4.45
2024-04-21T08:21:47.496Z,9.23
2024-04-21T08:24:14.279Z,4.57
2024-04-21T08:26:43.323Z,5.60
2024-04-21T08:29:09.902Z,7.07
2024-04-21T08:31:36.556Z,6.38
2024-04-21T08:34:04.105Z,7.80
2024-04-21T08:36:30.744Z,8.00
2024-04-21T08:38:57.518Z,8.35
2024-04-21T08:41:27.332Z,3.80
2024-04-21T08:43:57.528Z,6.53
2024-04-21T08:46:24.982Z,5.38
2024-04-21T08:48:51.962Z,5.30
2024-04-21T08:51:18.648Z,4.72
2024-04-21T08:53:45.445Z,3.60
2024-04-21T08:56:22.875Z,3.13
2024-04-21T08:58:51.966Z,3.78
2024-04-21T09:01:20.114Z,3.65
2024-04-21T09:03:52.425Z,6.88
2024-04-21T09:06:25.375Z,3.88
2024-04-21T09:08:55.959Z,1.60
2024-04-21T09:11:23.326Z,3.13
2024-04-21T09:13:50.644Z,5.03
2024-04-21T09:16:17.360Z,3.80
2024-04-21T09:18:44.166Z,4.75
2024-04-21T09:21:11.523Z,7.28
2024-04-21T09:23:41.671Z,5.95
2024-04-21T09:26:09.326Z,3.47
2024-04-21T09:28:36.201Z,7.90
2024-04-21T09:31:02.996Z,3.92
2024-04-21T09:33:30.437Z,5.03
2024-04-21T09:36:00.227Z,4.88
2024-04-21T09:38:26.956Z,5.55
2024-04-21T09:40:56.300Z,6.07
2024-04-21T09:43:23.995Z,5.68
2024-04-21T09:45:51.685Z,2.85
2024-04-21T09:48:19.965Z,5.38
2024-04-21T09:50:47.287Z,3.45
2024-04-21T09:53:15.274Z,4.20
2024-04-21T09:55:48.326Z,4.05
2024-04-21T09:58:16.641Z,2.75
2024-04-21T10:00:48.877Z,4.00
2024-04-21T10:03:17.164Z,4.70
2024-04-21T10:05:44.657Z,2.25
2024-04-21T10:08:12.331Z,2.50
2024-04-21T10:10:41.074Z,1.80
2024-04-21T10:13:08.468Z,2.58
2024-04-21T10:15:36.205Z,4.15
2024-04-21T10:18:03.695Z,4.80
2024-04-21T10:20:35.744Z,4.78
2024-04-21T10:23:10.634Z,1.80
2024-04-21T10:25:39.238Z,2.47
2024-04-21T10:28:07.479Z,5.60
2024-04-21T10:30:35.175Z,1.73
2024-04-21T10:33:04.077Z,2.50
2024-04-21T10:35:37.913Z,2.08
2024-04-21T10:38:09.062Z,3.50
2024-04-21T10:40:38.864Z,1.90
2024-04-21T10:43:06.461Z,1.60
2024-04-21T10:45:33.794Z,1.55
2024-04-21T10:48:01.572Z,2.47
2024-04-21T10:50:28.393Z,2.85
2024-04-21T10:52:55.847Z,1.70
2024-04-21T10:55:22.973Z,1.55
2024-04-21T10:57:49.957Z,2.47
2024-04-21T11:00:16.642Z,1.70
2024-04-21T11:02:43.441Z,2.33
2024-04-21T11:05:10.854Z,3.90
2024-04-21T11:07:37.953Z,1.77
2024-04-21T11:10:05.465Z,1.75
2024-04-21T11:12:33.563Z,2.85
2024-04-21T11:15:01.274Z,1.90
2024-04-21T11:17:28.173Z,2.92
2024-04-21T11:19:55.108Z,1.98
2024-04-21T11:22:22.258Z,2.00
2024-04-21T11:24:49.091Z,2.70
2024-04-21T11:27:17.985Z,2.53
2024-04-21T11:29:47.795Z,3.00
2024-04-21T11:32:16.210Z,2.30
2024-04-21T11:34:45.152Z,2.75
2024-04-21T11:37:22.641Z,2.10
2024-04-21T11:39:49.554Z,2.40
2024-04-21T11:42:16.249Z,1.83
2024-04-21T11:44:43.292Z,2.75
2024-04-21T11:47:09.900Z,2.95
2024-04-21T11:49:36.637Z,3.08
2024-04-21T11:52:03.383Z,2.42
2024-04-21T11:54:29.998Z,2.08
2024-04-21T11:56:56.646Z,2.97
2024-04-21T11:59:24.217Z,2.00
2024-04-21T12:01:51.175Z,2.83
2024-04-21T12:04:18.068Z,2.05
2024-04-21T12:06:44.837Z,3.42
2024-04-21T12:09:11.524Z,2.35
2024-04-21T12:11:38.279Z,2.38
2024-04-21T12:14:29.344Z,3.47
2024-04-21T12:16:56.603Z,2.20
2024-04-21T12:19:23.393Z,2.10
2024-04-21T12:21:50.498Z,1.83
2024-04-21T12:24:17.093Z,2.03
2024-04-21T12:26:43.690Z,1.92
2024-04-21T12:29:10.287Z,2.10
2024-04-21T12:31:37.038Z,3.20
2024-04-21T12:34:03.804Z,2.38
2024-04-21T12:36:30.484Z,1.60
2024-04-21T12:38:57.107Z,1.88
2024-04-21T12:41:23.787Z,2.58
2024-04-21T12:43:50.384Z,1.83
2024-04-21T12:46:17.084Z,3.22
2024-04-21T12:48:43.812Z,2.08
2024-04-21T12:51:10.500Z,2.10
2024-04-21T12:53:37.202Z,2.03
2024-04-21T12:56:04.017Z,3.40
2024-04-21T12:58:30.710Z,1.92
2024-04-21T13:00:57.517Z,1.90
2024-04-21T13:03:24.326Z,2.10
2024-04-21T13:05:50.946Z,1.88
2024-04-21T13:08:17.586Z,1.92
2024-04-21T13:10:44.261Z,2.33
2024-04-21T13:13:10.974Z,1.80
2024-04-21T13:15:37.794Z,1.48
2024-04-21T13:18:04.625Z,1.98
2024-04-21T13:20:32.131Z,2.55
2024-04-21T13:22:59.740Z,1.38
2024-04-21T13:25:26.574Z,2.88
2024-04-21T13:27:53.272Z,2.08
2024-04-21T13:30:19.911Z,1.80
2024-04-21T13:32:46.714Z,1.90
2024-04-21T13:35:13.392Z,1.60
2024-04-21T13:37:42.923Z,1.67
2024-04-21T13:40:10.555Z,2.10
2024-04-21T13:42:40.131Z,2.35
2024-04-21T13:45:08.413Z,1.63
2024-04-21T13:47:35.136Z,2.03
2024-04-21T13:50:02.024Z,1.60
2024-04-21T13:52:28.957Z,1.52
2024-04-21T13:54:55.739Z,1.30
2024-04-21T13:57:23.097Z,1.60
2024-04-21T13:59:50.028Z,1.40
2024-04-21T14:02:17.451Z,2.10
2024-04-21T14:04:44.312Z,1.50
2024-04-21T14:07:11.259Z,1.40
2024-04-21T14:09:38.594Z,1.20
2024-04-21T14:12:05.656Z,1.40
2024-04-21T14:14:32.402Z,1.38
2024-04-21T14:16:59.240Z,1.65
2024-04-21T14:19:25.939Z,3.15
2024-04-21T14:21:52.633Z,1.60
2024-04-21T14:24:19.304Z,1.60
2024-04-21T14:26:45.947Z,1.63
2024-04-21T14:29:12.556Z,1.40
2024-04-21T14:31:39.359Z,5.97
2024-04-21T14:34:06.407Z,1.70
2024-04-21T14:36:34.913Z,1.42
2024-04-21T14:39:02.255Z,1.80
2024-04-21T14:41:28.962Z,1.90
2024-04-21T14:43:56.674Z,1.80
2024-04-21T14:46:24.742Z,2.08
2024-04-21T14:48:51.542Z,1.80
2024-04-21T14:51:18.153Z,1.70
2024-04-21T14:53:44.869Z,1.88
2024-04-21T14:56:13.755Z,1.80
2024-04-21T14:58:40.506Z,1.85
2024-04-21T15:01:07.335Z,1.73
2024-04-21T15:03:36.063Z,1.73
2024-04-21T15:06:02.864Z,2.08
2024-04-21T15:08:29.930Z,3.00
2024-04-21T15:10:56.815Z,4.63
2024-04-21T15:13:23.496Z,4.75
2024-04-21T15:15:51.291Z,2.85
2024-04-21T15:18:18.147Z,1.63
2024-04-21T15:20:48.404Z,1.48
2024-04-21T15:23:15.302Z,1.55
2024-04-21T15:25:44.443Z,1.80
2024-04-21T15:28:11.812Z,1.60
2024-04-21T15:30:38.520Z,5.53
2024-04-21T15:33:05.634Z,1.50
2024-04-21T15:35:32.471Z,1.67
2024-04-21T15:37:59.099Z,1.52
2024-04-21T15:40:25.812Z,1.73
2024-04-21T15:42:52.493Z,1.70
2024-04-21T15:45:19.490Z,3.00
2024-04-21T15:47:46.257Z,1.80
2024-04-21T15:50:15.784Z,2.10
2024-04-21T15:52:42.691Z,2.38
2024-04-21T15:55:13.144Z,2.50
2024-04-21T15:57:40.083Z,1.83
2024-04-21T16:00:09.189Z,2.38
2024-04-21T16:02:37.650Z,1.98
2024-04-21T16:05:05.191Z,2.20
2024-04-21T16:07:33.265Z,1.98
2024-04-21T16:10:00.399Z,1.80
2024-04-21T16:12:27.087Z,1.95
2024-04-21T16:14:53.791Z,1.80
2024-04-21T16:17:23.211Z,1.73
2024-04-21T16:19:49.990Z,1.98
2024-04-21T16:22:16.669Z,1.85
2024-04-21T16:24:43.375Z,3.28
2024-04-21T16:27:10.097Z,2.95
2024-04-21T16:29:36.774Z,2.25
2024-04-21T16:32:05.045Z,2.30
2024-04-21T16:34:32.396Z,2.60
2024-04-21T16:36:59.500Z,2.72
2024-04-21T16:39:26.594Z,2.80
2024-04-21T16:41:53.832Z,2.90
2024-04-21T16:44:21.086Z,4.15
2024-04-21T16:46:50.281Z,3.20
2024-04-21T16:49:27.924Z,3.10
2024-04-21T16:52:01.075Z,4.45
2024-04-21T16:54:28.446Z,3.78
2024-04-21T16:59:37.731Z,4.40
2024-04-21T17:02:04.787Z,3.78
2024-04-21T17:04:31.801Z,3.03
2024-04-21T17:07:02.054Z,2.80
2024-04-21T17:09:28.981Z,2.67
2024-04-21T17:11:55.921Z,3.15
2024-04-21T17:14:23.111Z,2.72
2024-04-21T17:16:49.978Z,2.70
2024-04-21T17:19:16.720Z,2.40
2024-04-21T17:21:43.310Z,2.50
2024-04-21T17:24:09.967Z,2.08
2024-04-21T17:26:36.595Z,2.80
2024-04-21T17:29:03.274Z,2.70
2024-04-21T17:31:30.063Z,2.50
2024-04-21T17:33:57.002Z,2.35
2024-04-21T17:36:23.587Z,2.67
2024-04-21T17:38:50.244Z,2.45
2024-04-21T17:41:17.517Z,2.63
2024-04-21T17:43:44.290Z,2.63
2024-04-21T17:46:10.926Z,2.28
2024-04-21T17:48:38.319Z,2.42
2024-04-21T17:51:04.995Z,1.88
2024-04-21T17:53:31.580Z,1.92
2024-04-21T17:55:58.245Z,2.30
2024-04-21T17:58:25.022Z,2.15
2024-04-21T18:00:51.762Z,2.20
2024-04-21T18:03:18.433Z,1.88
2024-04-21T18:05:46.433Z,2.40
2024-04-21T18:08:13.186Z,2.08
2024-04-21T18:10:39.928Z,2.13
2024-04-21T18:13:06.711Z,2.03
2024-04-21T18:15:33.403Z,2.50
2024-04-21T18:18:00.303Z,2.20
2024-04-21T18:20:27.121Z,2.72
2024-04-21T18:22:54.453Z,3.00
2024-04-21T18:25:21.150Z,2.63
2024-04-21T18:27:47.895Z,2.33
2024-04-21T18:30:14.623Z,2.30
2024-04-21T18:32:41.439Z,2.05
2024-04-21T18:35:09.798Z,2.60
2024-04-21T18:37:36.519Z,2.47
2024-04-21T18:40:06.256Z,2.22
2024-04-21T18:42:33.123Z,2.50
2024-04-21T18:45:01.776Z,2.70
2024-04-21T18:47:29.860Z,2.40
2024-04-21T18:49:57.187Z,2.55
2024-04-21T18:52:24.045Z,2.67
2024-04-21T18:54:50.813Z,2.85
2024-04-21T18:57:17.516Z,4.93
2024-04-21T18:59:44.210Z,3.38
2024-04-21T19:02:13.219Z,3.08
2024-04-21T19:04:40.236Z,2.78
2024-04-21T19:07:06.949Z,2.90
2024-04-21T19:09:34.069Z,3.30
2024-04-21T19:12:01.324Z,2.72
2024-04-21T19:14:28.405Z,3.25
2024-04-21T19:16:55.475Z,2.50
2024-04-21T19:19:22.350Z,3.30
2024-04-21T19:21:49.303Z,3.35
2024-04-21T19:24:16.529Z,3.28
2024-04-21T19:26:43.153Z,3.00
2024-04-21T19:29:11.062Z,3.22
2024-04-21T19:31:37.818Z,3.63
2024-04-21T19:34:05.553Z,3.38
2024-04-21T19:36:32.172Z,3.17
2024-04-21T19:38:58.803Z,3.33
2024-04-21T19:41:25.422Z,3.47
2024-04-21T19:43:52.111Z,3.00
2024-04-21T19:46:18.795Z,3.42
2024-04-21T19:48:50.563Z,3.15
2024-04-21T19:51:18.434Z,3.50
2024-04-21T19:53:45.138Z,3.80
2024-04-21T19:56:12.058Z,5.28
2024-04-21T19:58:38.803Z,4.72
2024-04-21T20:01:05.541Z,4.00
2024-04-21T20:03:32.282Z,3.67
2024-04-21T20:05:58.969Z,3.33
2024-04-21T20:08:25.625Z,4.20
2024-04-21T20:10:52.335Z,3.42
2024-04-21T20:13:19.080Z,3.63
2024-04-21T20:16:12.963Z,3.70
2024-04-21T20:18:44.669Z,4.18
2024-04-21T20:21:11.467Z,4.60
2024-04-21T20:23:38.140Z,3.55
2024-04-21T20:26:07.306Z,4.03
2024-04-21T20:28:34.950Z,3.45
2024-04-21T20:31:01.671Z,4.82
2024-04-21T20:33:28.414Z,4.07
2024-04-21T20:35:55.046Z,3.78
2024-04-21T20:38:21.791Z,3.20
2024-04-21T20:40:48.664Z,3.20
2024-04-21T20:43:15.466Z,3.33
2024-04-21T20:45:42.185Z,3.55
2024-04-21T20:48:08.914Z,3.10
2024-04-21T20:50:35.654Z,2.92
2024-04-21T20:53:02.369Z,2.75
2024-04-21T20:55:31.881Z,3.30
2024-04-21T20:57:58.661Z,2.78
2024-04-21T21:00:25.576Z,2.92
2024-04-21T21:02:52.296Z,2.80
2024-04-21T21:05:18.886Z,3.10
2024-04-21T21:07:45.535Z,3.17
2024-04-21T21:10:12.257Z,3.70
2024-04-21T21:12:38.988Z,3.35
2024-04-21T21:15:07.163Z,3.65
2024-04-21T21:17:33.884Z,3.72
2024-04-21T21:20:00.679Z,3.45
2024-04-21T21:22:27.405Z,2.83
2024-04-21T21:24:54.046Z,3.40
2024-04-21T21:27:20.665Z,4.03
2024-04-21T21:29:47.379Z,3.03
2024-04-21T21:32:14.085Z,2.97
2024-04-21T21:34:42.152Z,3.30
2024-04-21T21:37:08.809Z,4.60
2024-04-21T21:39:37.028Z,3.10
2024-04-21T21:42:06.891Z,3.40
2024-04-21T21:44:33.528Z,2.97
2024-04-21T21:47:00.116Z,3.22
2024-04-21T21:49:26.880Z,2.92
2024-04-21T21:51:53.518Z,3.00
2024-04-21T21:54:20.224Z,3.50
2024-04-21T21:56:46.886Z,3.38
2024-04-21T21:59:13.516Z,2.85
2024-04-21T22:01:40.201Z,7.45
2024-04-21T22:04:06.940Z,3.55
2024-04-21T22:06:33.624Z,3.28
2024-04-21T22:09:00.315Z,3.28
2024-04-21T22:11:27.179Z,3.28
2024-04-21T22:13:53.802Z,3.83
2024-04-21T22:16:20.558Z,5.03
2024-04-21T22:18:47.387Z,3.20
2024-04-21T22:21:14.161Z,3.35
2024-04-21T22:23:40.759Z,3.22
2024-04-21T22:26:07.473Z,3.22
2024-04-21T22:28:34.227Z,3.35
2024-04-21T22:31:07.344Z,3.17
2024-04-21T22:33:34.535Z,4.28
2024-04-21T22:36:02.931Z,3.83
2024-04-21T22:38:29.651Z,4.35
2024-04-21T22:41:04.474Z,3.40
2024-04-21T22:43:32.112Z,3.50
2024-04-21T22:46:03.665Z,3.78
2024-04-21T22:48:31.642Z,3.60
2024-04-21T22:50:58.781Z,3.40
2024-04-21T22:53:25.416Z,4.45
2024-04-21T22:55:52.904Z,4.35
2024-04-21T22:58:20.439Z,5.68
2024-04-21T23:00:48.476Z,3.25
2024-04-21T23:03:15.416Z,3.13
2024-04-21T23:05:42.605Z,5.13
2024-04-21T23:08:10.196Z,3.55
2024-04-21T23:10:40.054Z,3.55
2024-04-21T23:13:08.127Z,3.63
2024-04-21T23:15:35.780Z,3.50
2024-04-21T23:18:02.617Z,3.70
2024-04-21T23:20:29.333Z,3.55
2024-04-21T23:22:56.828Z,3.35
2024-04-21T23:25:23.706Z,3.92
2024-04-21T23:27:50.383Z,3.25
2024-04-21T23:30:17.210Z,3.20
2024-04-21T23:32:43.901Z,3.28
2024-04-21T23:35:10.557Z,3.63
2024-04-21T23:37:37.227Z,3.63
2024-04-21T23:40:05.782Z,3.38
2024-04-21T23:42:33.800Z,3.75
2024-04-21T23:45:00.932Z,3.50
2024-04-21T23:47:27.624Z,3.70
2024-04-21T23:49:54.337Z,3.33
2024-04-21T23:52:21.172Z,3.88
2024-04-21T23:54:47.902Z,4.10
2024-04-21T23:57:14.494Z,3.58
2024-04-21T23:59:41.195Z,4.10
